This is the latest recevied weather packets stored in our database for station/object N6OL. If no packets are shown the sender has not sent any weather packets the latest 10 day(s).
| Time | Temp. | Humidity | Pressure | Rain* | Wind** | Luminosity | Snow |
|---|---|---|---|---|---|---|---|
| 1777502704 | 19.44° C | 63% | 1016.3 hPa | 0 mm | - | 661 W/m² | - |
| 1777502103 | 19.44° C | 64% | 1016.3 hPa | 0 mm | - | 682 W/m² | - |
| 1777499424 | 19.44° C | 67% | 1016.5 hPa | 0 mm | - | 756 W/m² | - |
| 1777496103 | 19.44° C | 68% | 1016.8 hPa | 0 mm | - | 812 W/m² | - |
| 1777494303 | 19.44° C | 67% | 1017.1 hPa | 0 mm | - | 823 W/m² | - |
| 1777494003 | 20° C | 67% | 1017.1 hPa | 0 mm | - | 824 W/m² | - |
| 1777493103 | 19.44° C | 68% | 1017.2 hPa | 0 mm | - | 823 W/m² | - |
| 1777492803 | 19.44° C | 68% | 1017.3 hPa | 0 mm | - | 823 W/m² | - |
| 1777492203 | 19.44° C | 66% | 1017.4 hPa | 0 mm | - | 821 W/m² | - |
| 1777487703 | 17.22° C | 75% | 1018.2 hPa | 0 mm | - | 756 W/m² | - |
| 1777487124 | 16.67° C | 76% | 1018.3 hPa | 0 mm | - | 738 W/m² | - |
| 1777486503 | 16.11° C | 77% | 1018.4 hPa | 0 mm | - | 722 W/m² | - |
| 1777484703 | 16.11° C | 76% | 1018.4 hPa | 0 mm | - | 666 W/m² | - |
| 1777483824 | 16.67° C | 76% | 1018.5 hPa | 0 mm | - | 636 W/m² | - |
| 1777482903 | 17.22° C | 74% | 1018.5 hPa | 0 mm | - | 599 W/m² | - |
| 1777482303 | 17.22° C | 71% | 1018.6 hPa | 0 mm | - | 577 W/m² | - |
| 1777479003 | 16.67° C | 72% | 1018.5 hPa | 0 mm | - | 434 W/m² | - |
| 1777477203 | 15° C | 76% | 1018.8 hPa | 0 mm | - | 345 W/m² | - |
| 1777474524 | 13.33° C | 87% | 1018.6 hPa | 0 mm | - | 190 W/m² | - |
| 1777474203 | 12.78° C | 88% | 1018.6 hPa | 0 mm | - | 165 W/m² | - |
| 1777471503 | 10.56° C | 90% | 1018.3 hPa | 0 mm | - | 53 W/m² | - |
| 1777470003 | 10° C | 89% | 1018.1 hPa | 0 mm | - | 18 W/m² | - |
| 1777469703 | 10° C | 89% | 1018.2 hPa | 0 mm | - | 14 W/m² | - |
| 1777467903 | 10° C | 88% | 1018 hPa | 0 mm | - | 0 W/m² | - |
| 1777464324 | 10.56° C | 88% | 1018.2 hPa | 0 mm | - | 0 W/m² | - |
* Rain latest hour (hover to see other rain measurements)
** Current wind speed in m/s (hover to see current wind gust speed)